Hillsboro, Kansas
Current Conditions -  °F | °C
As of 3:35 AM on Thursday 18 Dec 2014 (Local Time) from KEWK Reporting Station
Overcast Overcast  
Wind Chill: 23°   Ceiling: 400
Heat Index: 28°   Visibility: 5mi
Dew Point: 23°   Wind: 5mph
Humidity: 80%   Direction: 100°E
Pressure: 30.14"   Gusts: NA
Location:  38.35°N, 97.2°W
Report Text: KEWK 180935Z AUTO 10004KT 5SM BKN004 OVC012 M02/M05 A3014 RMK AO1
Loading
Personal Weather Stations






























Interactive Weather Map New forecast layout! Learn more

10-Day Weather Forecast

Advertisements
Track Severe Weather on mobile